sensor_id;sensor_type;location;lat;lon;timestamp;pressure;altitude;pressure_sealevel;temperature;humidity
6030;BME280;3043;42.682;23.376;2023-04-19T00:02:19;94508.72;;;11.37;100.00
6030;BME280;3043;42.682;23.376;2023-04-19T00:04:45;94497.59;;;11.34;100.00
6030;BME280;3043;42.682;23.376;2023-04-19T00:07:11;94494.19;;;11.33;100.00
6030;BME280;3043;42.682;23.376;2023-04-19T00:09:38;94500.72;;;11.19;100.00
6030;BME280;3043;42.682;23.376;2023-04-19T00:12:03;94497.38;;;11.15;100.00
6030;BME280;3043;42.682;23.376;2023-04-19T00:14:29;94497.69;;;11.06;100.00
6030;BME280;3043;42.682;23.376;2023-04-19T00:16:54;94499.41;;;11.07;100.00
6030;BME280;3043;42.682;23.376;2023-04-19T00:19:20;94497.81;;;11.03;100.00
6030;BME280;3043;42.682;23.376;2023-04-19T00:21:46;94492.31;;;11.12;100.00
6030;BME280;3043;42.682;23.376;2023-04-19T00:24:12;94490.41;;;11.17;100.00
6030;BME280;3043;42.682;23.376;2023-04-19T00:26:37;94490.19;;;11.23;100.00
6030;BME280;3043;42.682;23.376;2023-04-19T00:29:03;94492.00;;;11.21;100.00
6030;BME280;3043;42.682;23.376;2023-04-19T00:31:28;94484.97;;;11.00;100.00
6030;BME280;3043;42.682;23.376;2023-04-19T00:33:55;94484.19;;;10.98;100.00
6030;BME280;3043;42.682;23.376;2023-04-19T00:36:20;94476.97;;;11.06;100.00
6030;BME280;3043;42.682;23.376;2023-04-19T00:38:46;94481.50;;;11.01;100.00
6030;BME280;3043;42.682;23.376;2023-04-19T00:41:11;94485.59;;;11.07;100.00
6030;BME280;3043;42.682;23.376;2023-04-19T00:43:36;94485.34;;;11.14;100.00
6030;BME280;3043;42.682;23.376;2023-04-19T00:46:02;94482.47;;;10.97;100.00
6030;BME280;3043;42.682;23.376;2023-04-19T00:48:28;94479.94;;;10.96;100.00
6030;BME280;3043;42.682;23.376;2023-04-19T00:50:55;94465.81;;;11.06;100.00
6030;BME280;3043;42.682;23.376;2023-04-19T00:53:20;94473.34;;;10.87;100.00
6030;BME280;3043;42.682;23.376;2023-04-19T00:55:46;94465.91;;;10.78;100.00
6030;BME280;3043;42.682;23.376;2023-04-19T00:58:11;94468.56;;;11.01;100.00
6030;BME280;3043;42.682;23.376;2023-04-19T01:00:37;94467.59;;;11.04;100.00
6030;BME280;3043;42.682;23.376;2023-04-19T01:03:02;94469.16;;;11.08;100.00
6030;BME280;3043;42.682;23.376;2023-04-19T01:05:29;94476.56;;;11.18;100.00
6030;BME280;3043;42.682;23.376;2023-04-19T01:07:55;94468.34;;;11.07;100.00
6030;BME280;3043;42.682;23.376;2023-04-19T01:10:20;94469.06;;;11.11;100.00
6030;BME280;3043;42.682;23.376;2023-04-19T01:12:46;94468.94;;;11.14;100.00
6030;BME280;3043;42.682;23.376;2023-04-19T01:15:11;94469.91;;;11.11;100.00
6030;BME280;3043;42.682;23.376;2023-04-19T01:17:37;94466.09;;;11.21;100.00
6030;BME280;3043;42.682;23.376;2023-04-19T01:20:04;94471.47;;;11.15;100.00
6030;BME280;3043;42.682;23.376;2023-04-19T01:22:33;94473.19;;;11.16;100.00
6030;BME280;3043;42.682;23.376;2023-04-19T01:24:59;94463.38;;;11.01;100.00
6030;BME280;3043;42.682;23.376;2023-04-19T01:27:25;94473.63;;;11.04;100.00
6030;BME280;3043;42.682;23.376;2023-04-19T01:29:51;94460.63;;;10.81;100.00
6030;BME280;3043;42.682;23.376;2023-04-19T01:32:16;94461.88;;;10.94;100.00
6030;BME280;3043;42.682;23.376;2023-04-19T01:34:41;94462.47;;;11.02;100.00
6030;BME280;3043;42.682;23.376;2023-04-19T01:37:07;94473.19;;;11.16;100.00
6030;BME280;3043;42.682;23.376;2023-04-19T01:39:33;94460.31;;;11.15;100.00
6030;BME280;3043;42.682;23.376;2023-04-19T01:41:58;94463.81;;;11.12;100.00
6030;BME280;3043;42.682;23.376;2023-04-19T01:44:25;94464.84;;;11.08;100.00
6030;BME280;3043;42.682;23.376;2023-04-19T01:46:51;94455.28;;;11.10;100.00
6030;BME280;3043;42.682;23.376;2023-04-19T01:49:16;94454.16;;;11.17;100.00
6030;BME280;3043;42.682;23.376;2023-04-19T01:51:41;94455.94;;;11.15;100.00
6030;BME280;3043;42.682;23.376;2023-04-19T01:54:07;94457.75;;;11.13;100.00
6030;BME280;3043;42.682;23.376;2023-04-19T01:56:32;94450.88;;;11.12;100.00
6030;BME280;3043;42.682;23.376;2023-04-19T01:58:58;94448.66;;;11.02;100.00
6030;BME280;3043;42.682;23.376;2023-04-19T02:01:23;94444.88;;;10.87;100.00
6030;BME280;3043;42.682;23.376;2023-04-19T02:03:49;94439.47;;;10.93;100.00
6030;BME280;3043;42.682;23.376;2023-04-19T02:06:14;94436.53;;;10.53;100.00
6030;BME280;3043;42.682;23.376;2023-04-19T02:08:41;94432.56;;;10.43;100.00
6030;BME280;3043;42.682;23.376;2023-04-19T02:11:07;94438.16;;;10.31;100.00
6030;BME280;3043;42.682;23.376;2023-04-19T02:13:33;94431.47;;;10.24;100.00
6030;BME280;3043;42.682;23.376;2023-04-19T02:15:59;94433.78;;;10.57;100.00
6030;BME280;3043;42.682;23.376;2023-04-19T02:18:26;94422.84;;;10.25;100.00
6030;BME280;3043;42.682;23.376;2023-04-19T02:20:57;94420.84;;;10.05;100.00
6030;BME280;3043;42.682;23.376;2023-04-19T02:23:23;94414.94;;;10.02;100.00
6030;BME280;3043;42.682;23.376;2023-04-19T02:25:49;94419.75;;;10.14;100.00
6030;BME280;3043;42.682;23.376;2023-04-19T02:28:14;94435.09;;;9.91;100.00
6030;BME280;3043;42.682;23.376;2023-04-19T02:30:40;94436.84;;;9.90;100.00
6030;BME280;3043;42.682;23.376;2023-04-19T02:33:05;94429.34;;;9.83;100.00
6030;BME280;3043;42.682;23.376;2023-04-19T02:35:31;94427.44;;;9.88;100.00
6030;BME280;3043;42.682;23.376;2023-04-19T02:37:59;94434.13;;;9.95;100.00
6030;BME280;3043;42.682;23.376;2023-04-19T02:40:24;94426.59;;;9.87;100.00
6030;BME280;3043;42.682;23.376;2023-04-19T02:42:51;94423.59;;;10.01;100.00
6030;BME280;3043;42.682;23.376;2023-04-19T02:45:16;94428.41;;;10.13;100.00
6030;BME280;3043;42.682;23.376;2023-04-19T02:47:42;94425.00;;;10.11;100.00
6030;BME280;3043;42.682;23.376;2023-04-19T02:50:07;94431.84;;;10.12;100.00
6030;BME280;3043;42.682;23.376;2023-04-19T02:52:33;94429.44;;;10.06;100.00
6030;BME280;3043;42.682;23.376;2023-04-19T02:54:59;94428.41;;;10.13;100.00
6030;BME280;3043;42.682;23.376;2023-04-19T02:57:24;94431.19;;;10.05;100.00
6030;BME280;3043;42.682;23.376;2023-04-19T02:59:50;94427.94;;;9.99;100.00
6030;BME280;3043;42.682;23.376;2023-04-19T03:02:15;94438.16;;;10.03;100.00
6030;BME280;3043;42.682;23.376;2023-04-19T03:04:41;94429.03;;;9.92;100.00
6030;BME280;3043;42.682;23.376;2023-04-19T03:07:08;94428.84;;;9.98;100.00
6030;BME280;3043;42.682;23.376;2023-04-19T03:09:34;94421.97;;;9.97;100.00
6030;BME280;3043;42.682;23.376;2023-04-19T03:11:59;94417.59;;;9.99;100.00
6030;BME280;3043;42.682;23.376;2023-04-19T03:14:26;94425.75;;;9.87;100.00
6030;BME280;3043;42.682;23.376;2023-04-19T03:16:51;94433.78;;;9.78;100.00
6030;BME280;3043;42.682;23.376;2023-04-19T03:19:17;94425.94;;;9.81;100.00
6030;BME280;3043;42.682;23.376;2023-04-19T03:21:42;94424.75;;;9.91;100.00
6030;BME280;3043;42.682;23.376;2023-04-19T03:24:07;94427.81;;;9.76;100.00
6030;BME280;3043;42.682;23.376;2023-04-19T03:26:33;94426.94;;;9.77;100.00
6030;BME280;3043;42.682;23.376;2023-04-19T03:28:58;94414.44;;;9.62;100.00
6030;BME280;3043;42.682;23.376;2023-04-19T03:31:25;94418.41;;;9.46;100.00
6030;BME280;3043;42.682;23.376;2023-04-19T03:33:50;94416.63;;;9.48;100.00
6030;BME280;3043;42.682;23.376;2023-04-19T03:36:16;94421.56;;;9.55;100.00
6030;BME280;3043;42.682;23.376;2023-04-19T03:38:41;94422.91;;;9.67;100.00
6030;BME280;3043;42.682;23.376;2023-04-19T03:41:25;94422.56;;;9.50;100.00
6030;BME280;3043;42.682;23.376;2023-04-19T03:43:50;94428.03;;;9.39;100.00
6030;BME280;3043;42.682;23.376;2023-04-19T03:46:16;94423.47;;;9.49;100.00
6030;BME280;3043;42.682;23.376;2023-04-19T03:48:41;94418.56;;;9.40;100.00
6030;BME280;3043;42.682;23.376;2023-04-19T03:51:07;94411.91;;;9.33;100.00
6030;BME280;3043;42.682;23.376;2023-04-19T03:53:32;94424.09;;;9.28;100.00
6030;BME280;3043;42.682;23.376;2023-04-19T03:55:58;94418.94;;;9.28;100.00
6030;BME280;3043;42.682;23.376;2023-04-19T03:58:23;94423.91;;;9.34;100.00
6030;BME280;3043;42.682;23.376;2023-04-19T04:00:49;94422.31;;;9.30;100.00
6030;BME280;3043;42.682;23.376;2023-04-19T04:03:15;94419.44;;;9.40;100.00
6030;BME280;3043;42.682;23.376;2023-04-19T04:05:40;94422.06;;;9.39;100.00
6030;BME280;3043;42.682;23.376;2023-04-19T04:08:05;94428.41;;;9.27;100.00
6030;BME280;3043;42.682;23.376;2023-04-19T04:10:31;94427.03;;;9.45;100.00
6030;BME280;3043;42.682;23.376;2023-04-19T04:12:56;94424.41;;;9.46;100.00
6030;BME280;3043;42.682;23.376;2023-04-19T04:15:22;94429.59;;;9.46;100.00
6030;BME280;3043;42.682;23.376;2023-04-19T04:17:47;94432.13;;;9.48;100.00
6030;BME280;3043;42.682;23.376;2023-04-19T04:20:12;94431.84;;;9.28;100.00
6030;BME280;3043;42.682;23.376;2023-04-19T04:22:42;94429.16;;;9.31;100.00
6030;BME280;3043;42.682;23.376;2023-04-19T04:25:08;94425.16;;;9.50;100.00
6030;BME280;3043;42.682;23.376;2023-04-19T04:27:34;94440.09;;;9.68;100.00
6030;BME280;3043;42.682;23.376;2023-04-19T04:30:00;94430.31;;;9.50;100.00
6030;BME280;3043;42.682;23.376;2023-04-19T04:32:26;94438.59;;;9.61;100.00
6030;BME280;3043;42.682;23.376;2023-04-19T04:34:51;94428.34;;;9.58;100.00
6030;BME280;3043;42.682;23.376;2023-04-19T04:37:17;94434.75;;;9.74;100.00
6030;BME280;3043;42.682;23.376;2023-04-19T04:39:42;94438.13;;;9.76;100.00
6030;BME280;3043;42.682;23.376;2023-04-19T04:42:08;94436.19;;;9.84;100.00
6030;BME280;3043;42.682;23.376;2023-04-19T04:44:36;94446.31;;;9.90;100.00
6030;BME280;3043;42.682;23.376;2023-04-19T04:47:03;94438.66;;;9.87;100.00
6030;BME280;3043;42.682;23.376;2023-04-19T04:49:29;94447.63;;;10.03;100.00
6030;BME280;3043;42.682;23.376;2023-04-19T04:51:55;94451.03;;;10.05;100.00
6030;BME280;3043;42.682;23.376;2023-04-19T04:54:20;94451.88;;;10.07;100.00
6030;BME280;3043;42.682;23.376;2023-04-19T04:56:46;94452.44;;;10.15;100.00
6030;BME280;3043;42.682;23.376;2023-04-19T04:59:11;94445.47;;;10.44;100.00
6030;BME280;3043;42.682;23.376;2023-04-19T05:01:37;94450.66;;;10.17;100.00
6030;BME280;3043;42.682;23.376;2023-04-19T05:04:02;94448.13;;;10.15;100.00
6030;BME280;3043;42.682;23.376;2023-04-19T05:06:28;94452.41;;;10.16;100.00
6030;BME280;3043;42.682;23.376;2023-04-19T05:08:53;94447.94;;;10.21;100.00
6030;BME280;3043;42.682;23.376;2023-04-19T05:11:19;94442.81;;;10.20;100.00
6030;BME280;3043;42.682;23.376;2023-04-19T05:13:45;94452.00;;;10.30;100.00
6030;BME280;3043;42.682;23.376;2023-04-19T05:16:10;94454.06;;;10.19;100.00
6030;BME280;3043;42.682;23.376;2023-04-19T05:18:36;94455.84;;;10.17;100.00
6030;BME280;3043;42.682;23.376;2023-04-19T05:21:01;94457.81;;;10.09;100.00
6030;BME280;3043;42.682;23.376;2023-04-19T05:23:26;94454.88;;;10.19;100.00
6030;BME280;3043;42.682;23.376;2023-04-19T05:25:52;94455.53;;;10.26;100.00
6030;BME280;3043;42.682;23.376;2023-04-19T05:28:17;94455.75;;;10.20;100.00
6030;BME280;3043;42.682;23.376;2023-04-19T05:30:43;94451.81;;;10.08;100.00
6030;BME280;3043;42.682;23.376;2023-04-19T05:33:08;94443.44;;;10.28;100.00
6030;BME280;3043;42.682;23.376;2023-04-19T05:35:34;94458.94;;;10.28;100.00
6030;BME280;3043;42.682;23.376;2023-04-19T05:37:59;94455.25;;;10.35;100.00
6030;BME280;3043;42.682;23.376;2023-04-19T05:40:24;94456.88;;;10.39;100.00
6030;BME280;3043;42.682;23.376;2023-04-19T05:42:50;94456.06;;;10.63;100.00
6030;BME280;3043;42.682;23.376;2023-04-19T05:45:15;94467.56;;;10.79;100.00
6030;BME280;3043;42.682;23.376;2023-04-19T05:47:43;94464.00;;;10.83;100.00
6030;BME280;3043;42.682;23.376;2023-04-19T05:50:08;94463.41;;;10.75;100.00
6030;BME280;3043;42.682;23.376;2023-04-19T05:52:34;94460.72;;;10.78;100.00
6030;BME280;3043;42.682;23.376;2023-04-19T05:54:59;94466.38;;;10.89;100.00
6030;BME280;3043;42.682;23.376;2023-04-19T05:57:25;94468.22;;;11.10;100.00
6030;BME280;3043;42.682;23.376;2023-04-19T05:59:51;94473.97;;;11.18;100.00
6030;BME280;3043;42.682;23.376;2023-04-19T06:02:17;94470.88;;;11.33;100.00
6030;BME280;3043;42.682;23.376;2023-04-19T06:04:42;94483.34;;;11.22;100.00
6030;BME280;3043;42.682;23.376;2023-04-19T06:07:08;94471.69;;;11.34;100.00
6030;BME280;3043;42.682;23.376;2023-04-19T06:09:33;94465.56;;;11.36;100.00
6030;BME280;3043;42.682;23.376;2023-04-19T06:11:58;94470.66;;;11.15;100.00
6030;BME280;3043;42.682;23.376;2023-04-19T06:14:27;94476.16;;;11.30;100.00
6030;BME280;3043;42.682;23.376;2023-04-19T06:16:53;94476.38;;;11.47;100.00
6030;BME280;3043;42.682;23.376;2023-04-19T06:19:18;94476.72;;;11.61;100.00
6030;BME280;3043;42.682;23.376;2023-04-19T06:21:45;94484.47;;;11.63;100.00
6030;BME280;3043;42.682;23.376;2023-04-19T06:24:12;94477.84;;;11.54;100.00
6030;BME280;3043;42.682;23.376;2023-04-19T06:26:37;94484.16;;;11.47;100.00
6030;BME280;3043;42.682;23.376;2023-04-19T06:29:02;94485.75;;;11.51;100.00
6030;BME280;3043;42.682;23.376;2023-04-19T06:31:28;94478.31;;;11.42;100.00
6030;BME280;3043;42.682;23.376;2023-04-19T06:33:54;94477.88;;;11.77;100.00
6030;BME280;3043;42.682;23.376;2023-04-19T06:36:19;94482.88;;;12.05;100.00
6030;BME280;3043;42.682;23.376;2023-04-19T06:38:44;94484.28;;;12.13;100.00
6030;BME280;3043;42.682;23.376;2023-04-19T06:41:11;94488.31;;;12.20;100.00
6030;BME280;3043;42.682;23.376;2023-04-19T06:43:36;94484.34;;;12.33;100.00
6030;BME280;3043;42.682;23.376;2023-04-19T06:46:03;94489.19;;;12.42;100.00
6030;BME280;3043;42.682;23.376;2023-04-19T06:48:29;94490.38;;;12.55;100.00
6030;BME280;3043;42.682;23.376;2023-04-19T06:50:55;94491.03;;;12.61;100.00
6030;BME280;3043;42.682;23.376;2023-04-19T06:53:21;94495.84;;;12.91;100.00
6030;BME280;3043;42.682;23.376;2023-04-19T06:55:47;94495.41;;;13.42;100.00
6030;BME280;3043;42.682;23.376;2023-04-19T06:58:12;94498.78;;;14.01;100.00
6030;BME280;3043;42.682;23.376;2023-04-19T07:00:38;94511.53;;;14.07;100.00
6030;BME280;3043;42.682;23.376;2023-04-19T07:03:03;94516.03;;;14.03;100.00
6030;BME280;3043;42.682;23.376;2023-04-19T07:05:30;94509.84;;;14.06;100.00
6030;BME280;3043;42.682;23.376;2023-04-19T07:07:56;94510.56;;;14.28;100.00
6030;BME280;3043;42.682;23.376;2023-04-19T07:10:21;94516.13;;;14.02;100.00
6030;BME280;3043;42.682;23.376;2023-04-19T07:12:47;94509.16;;;14.21;100.00
6030;BME280;3043;42.682;23.376;2023-04-19T07:15:12;94515.56;;;14.14;100.00
6030;BME280;3043;42.682;23.376;2023-04-19T07:17:39;94517.72;;;14.60;100.00
6030;BME280;3043;42.682;23.376;2023-04-19T07:20:05;94512.19;;;14.85;100.00
6030;BME280;3043;42.682;23.376;2023-04-19T07:22:31;94512.00;;;15.06;100.00
6030;BME280;3043;42.682;23.376;2023-04-19T07:24:57;94519.53;;;15.29;100.00
6030;BME280;3043;42.682;23.376;2023-04-19T07:27:23;94515.59;;;15.21;100.00
6030;BME280;3043;42.682;23.376;2023-04-19T07:29:48;94522.19;;;14.75;100.00
6030;BME280;3043;42.682;23.376;2023-04-19T07:32:14;94521.59;;;14.70;100.00
6030;BME280;3043;42.682;23.376;2023-04-19T07:34:39;94522.72;;;14.65;100.00
6030;BME280;3043;42.682;23.376;2023-04-19T07:37:06;94520.59;;;15.08;100.00
6030;BME280;3043;42.682;23.376;2023-04-19T07:39:31;94525.00;;;14.89;100.00
6030;BME280;3043;42.682;23.376;2023-04-19T07:41:57;94519.00;;;14.52;100.00
6030;BME280;3043;42.682;23.376;2023-04-19T07:44:23;94519.50;;;14.60;100.00
6030;BME280;3043;42.682;23.376;2023-04-19T07:46:48;94521.97;;;14.63;100.00
6030;BME280;3043;42.682;23.376;2023-04-19T07:49:14;94529.59;;;15.01;100.00
6030;BME280;3043;42.682;23.376;2023-04-19T07:51:39;94523.44;;;14.31;100.00
6030;BME280;3043;42.682;23.376;2023-04-19T07:54:05;94524.78;;;14.40;100.00
6030;BME280;3043;42.682;23.376;2023-04-19T07:56:31;94518.88;;;14.36;100.00
6030;BME280;3043;42.682;23.376;2023-04-19T07:58:58;94511.84;;;14.38;100.00
6030;BME280;3043;42.682;23.376;2023-04-19T08:01:23;94519.72;;;14.37;100.00
6030;BME280;3043;42.682;23.376;2023-04-19T08:03:49;94523.66;;;14.45;100.00
6030;BME280;3043;42.682;23.376;2023-04-19T08:06:14;94520.16;;;14.46;100.00
6030;BME280;3043;42.682;23.376;2023-04-19T08:08:39;94524.91;;;14.18;100.00
6030;BME280;3043;42.682;23.376;2023-04-19T08:11:05;94527.13;;;14.27;100.00
6030;BME280;3043;42.682;23.376;2023-04-19T08:13:31;94518.59;;;14.42;100.00
6030;BME280;3043;42.682;23.376;2023-04-19T08:15:56;94522.56;;;14.32;100.00
6030;BME280;3043;42.682;23.376;2023-04-19T08:18:22;94522.06;;;14.24;100.00
6030;BME280;3043;42.682;23.376;2023-04-19T08:20:48;94527.75;;;14.32;100.00
6030;BME280;3043;42.682;23.376;2023-04-19T08:23:13;94520.47;;;14.20;100.00
6030;BME280;3043;42.682;23.376;2023-04-19T08:25:39;94519.56;;;14.58;100.00
6030;BME280;3043;42.682;23.376;2023-04-19T08:28:05;94530.34;;;14.32;100.00
6030;BME280;3043;42.682;23.376;2023-04-19T08:30:31;94526.31;;;14.62;100.00
6030;BME280;3043;42.682;23.376;2023-04-19T08:32:56;94518.38;;;14.28;100.00
6030;BME280;3043;42.682;23.376;2023-04-19T08:35:22;94512.09;;;13.95;100.00
6030;BME280;3043;42.682;23.376;2023-04-19T08:37:47;94506.97;;;13.55;100.00
6030;BME280;3043;42.682;23.376;2023-04-19T08:40:14;94515.56;;;13.75;100.00
6030;BME280;3043;42.682;23.376;2023-04-19T08:42:41;94511.50;;;13.70;100.00
6030;BME280;3043;42.682;23.376;2023-04-19T08:45:07;94497.75;;;13.86;100.00
6030;BME280;3043;42.682;23.376;2023-04-19T08:47:34;94517.50;;;14.29;100.00
6030;BME280;3043;42.682;23.376;2023-04-19T08:50:01;94498.47;;;14.46;100.00
6030;BME280;3043;42.682;23.376;2023-04-19T08:52:29;94508.72;;;14.67;100.00
6030;BME280;3043;42.682;23.376;2023-04-19T08:54:56;94498.88;;;14.55;100.00
6030;BME280;3043;42.682;23.376;2023-04-19T08:57:22;94495.78;;;14.47;100.00
6030;BME280;3043;42.682;23.376;2023-04-19T08:59:47;94496.56;;;14.49;100.00
6030;BME280;3043;42.682;23.376;2023-04-19T09:02:16;94505.19;;;14.68;100.00
6030;BME280;3043;42.682;23.376;2023-04-19T09:04:41;94500.91;;;14.84;100.00
6030;BME280;3043;42.682;23.376;2023-04-19T09:07:07;94501.06;;;14.81;100.00
6030;BME280;3043;42.682;23.376;2023-04-19T09:09:33;94490.66;;;14.98;100.00
6030;BME280;3043;42.682;23.376;2023-04-19T09:12:00;94498.94;;;14.89;100.00
6030;BME280;3043;42.682;23.376;2023-04-19T09:14:26;94503.09;;;15.10;100.00
6030;BME280;3043;42.682;23.376;2023-04-19T09:16:53;94491.97;;;15.75;100.00
6030;BME280;3043;42.682;23.376;2023-04-19T09:19:18;94487.03;;;16.50;100.00
6030;BME280;3043;42.682;23.376;2023-04-19T09:21:45;94491.59;;;17.07;100.00
6030;BME280;3043;42.682;23.376;2023-04-19T09:24:10;94489.53;;;17.41;100.00
6030;BME280;3043;42.682;23.376;2023-04-19T09:26:36;94489.50;;;17.27;100.00
6030;BME280;3043;42.682;23.376;2023-04-19T09:29:05;94496.44;;;17.58;100.00
6030;BME280;3043;42.682;23.376;2023-04-19T09:31:36;94492.38;;;17.23;100.00
6030;BME280;3043;42.682;23.376;2023-04-19T09:34:16;94499.69;;;17.02;100.00
6030;BME280;3043;42.682;23.376;2023-04-19T09:36:42;94488.09;;;17.22;100.00
6030;BME280;3043;42.682;23.376;2023-04-19T09:39:08;94496.69;;;17.24;100.00
6030;BME280;3043;42.682;23.376;2023-04-19T09:41:33;94496.66;;;17.83;100.00
6030;BME280;3043;42.682;23.376;2023-04-19T09:44:09;94487.81;;;19.21;96.30
6030;BME280;3043;42.682;23.376;2023-04-19T09:46:36;94491.63;;;20.44;82.81
6030;BME280;3043;42.682;23.376;2023-04-19T09:51:43;94485.28;;;20.83;74.03
6030;BME280;3043;42.682;23.376;2023-04-19T09:54:10;94478.63;;;21.26;72.75
6030;BME280;3043;42.682;23.376;2023-04-19T09:56:36;94487.13;;;21.06;73.81
6030;BME280;3043;42.682;23.376;2023-04-19T09:59:03;94474.28;;;21.83;66.40
6030;BME280;3043;42.682;23.376;2023-04-19T10:01:55;94470.75;;;22.28;62.87
6030;BME280;3043;42.682;23.376;2023-04-19T10:04:21;94470.13;;;21.68;63.14
6030;BME280;3043;42.682;23.376;2023-04-19T10:06:52;94465.44;;;22.06;61.44
6030;BME280;3043;42.682;23.376;2023-04-19T10:09:21;94461.28;;;22.59;61.02
6030;BME280;3043;42.682;23.376;2023-04-19T10:11:51;94462.97;;;22.27;61.91
6030;BME280;3043;42.682;23.376;2023-04-19T10:14:23;94459.00;;;22.54;58.85
6030;BME280;3043;42.682;23.376;2023-04-19T10:16:50;94461.13;;;22.83;58.50
6030;BME280;3043;42.682;23.376;2023-04-19T10:19:17;94456.81;;;22.04;59.63
6030;BME280;3043;42.682;23.376;2023-04-19T10:21:44;94454.09;;;22.28;57.88
6030;BME280;3043;42.682;23.376;2023-04-19T10:24:15;94452.06;;;22.64;56.59
6030;BME280;3043;42.682;23.376;2023-04-19T10:29:58;94451.94;;;22.33;59.32
6030;BME280;3043;42.682;23.376;2023-04-19T10:32:39;94447.44;;;21.89;61.29
6030;BME280;3043;42.682;23.376;2023-04-19T10:35:22;94442.72;;;21.25;63.31
6030;BME280;3043;42.682;23.376;2023-04-19T10:38:10;94438.63;;;20.74;65.89
6030;BME280;3043;42.682;23.376;2023-04-19T10:43:33;94444.44;;;20.90;65.35
6030;BME280;3043;42.682;23.376;2023-04-19T10:46:13;94441.94;;;19.91;69.25
6030;BME280;3043;42.682;23.376;2023-04-19T10:48:48;94435.63;;;19.94;70.96
6030;BME280;3043;42.682;23.376;2023-04-19T10:51:17;94434.75;;;19.93;71.15
6030;BME280;3043;42.682;23.376;2023-04-19T10:56:09;94421.31;;;19.48;71.11
6030;BME280;3043;42.682;23.376;2023-04-19T10:59:11;94428.06;;;19.52;70.32
6030;BME280;3043;42.682;23.376;2023-04-19T11:04:20;94421.06;;;19.25;74.99
6030;BME280;3043;42.682;23.376;2023-04-19T11:09:24;94423.03;;;19.49;71.60
6030;BME280;3043;42.682;23.376;2023-04-19T11:11:51;94426.78;;;19.57;71.72
6030;BME280;3043;42.682;23.376;2023-04-19T11:14:19;94420.06;;;19.78;70.50
6030;BME280;3043;42.682;23.376;2023-04-19T11:16:45;94417.97;;;19.83;70.80
6030;BME280;3043;42.682;23.376;2023-04-19T11:19:17;94418.09;;;19.82;72.49
6030;BME280;3043;42.682;23.376;2023-04-19T11:21:45;94401.75;;;19.26;68.78
6030;BME280;3043;42.682;23.376;2023-04-19T11:24:11;94410.56;;;19.25;72.24
6030;BME280;3043;42.682;23.376;2023-04-19T11:26:37;94412.25;;;19.26;69.17
6030;BME280;3043;42.682;23.376;2023-04-19T11:29:03;94412.22;;;19.01;73.60
6030;BME280;3043;42.682;23.376;2023-04-19T11:31:33;94418.00;;;19.06;74.30
6030;BME280;3043;42.682;23.376;2023-04-19T11:33:59;94408.72;;;19.27;74.03
6030;BME280;3043;42.682;23.376;2023-04-19T11:36:25;94410.22;;;19.57;71.52
6030;BME280;3043;42.682;23.376;2023-04-19T11:38:51;94408.00;;;19.76;68.98
6030;BME280;3043;42.682;23.376;2023-04-19T11:41:17;94405.81;;;19.82;67.73
6030;BME280;3043;42.682;23.376;2023-04-19T11:43:42;94402.84;;;19.87;64.14
6030;BME280;3043;42.682;23.376;2023-04-19T11:46:12;94393.59;;;19.81;66.60
6030;BME280;3043;42.682;23.376;2023-04-19T11:48:48;94400.13;;;19.51;65.01
6030;BME280;3043;42.682;23.376;2023-04-19T11:51:14;94400.69;;;19.16;66.24
6030;BME280;3043;42.682;23.376;2023-04-19T11:53:40;94393.97;;;19.25;66.73
6030;BME280;3043;42.682;23.376;2023-04-19T11:56:06;94403.91;;;19.47;66.15
6030;BME280;3043;42.682;23.376;2023-04-19T11:58:45;94389.41;;;19.79;61.34
6030;BME280;3043;42.682;23.376;2023-04-19T12:03:50;94390.84;;;19.83;62.29
6030;BME280;3043;42.682;23.376;2023-04-19T12:06:21;94389.41;;;19.79;63.49
6030;BME280;3043;42.682;23.376;2023-04-19T12:08:49;94393.34;;;20.09;63.08
6030;BME280;3043;42.682;23.376;2023-04-19T12:11:17;94387.94;;;19.62;64.96
6030;BME280;3043;42.682;23.376;2023-04-19T12:13:43;94386.94;;;19.13;74.79
6030;BME280;3043;42.682;23.376;2023-04-19T12:16:10;94393.50;;;18.93;79.96
6030;BME280;3043;42.682;23.376;2023-04-19T12:18:49;94390.09;;;18.66;81.16
6030;BME280;3043;42.682;23.376;2023-04-19T12:23:53;94387.81;;;16.93;100.00
6030;BME280;3043;42.682;23.376;2023-04-19T12:26:18;94385.22;;;16.33;100.00
6030;BME280;3043;42.682;23.376;2023-04-19T12:28:44;94376.31;;;15.74;100.00
6030;BME280;3043;42.682;23.376;2023-04-19T12:31:09;94382.03;;;15.81;100.00
6030;BME280;3043;42.682;23.376;2023-04-19T12:33:35;94383.38;;;15.57;100.00
6030;BME280;3043;42.682;23.376;2023-04-19T12:36:00;94382.84;;;15.50;100.00
6030;BME280;3043;42.682;23.376;2023-04-19T12:38:26;94372.41;;;15.50;100.00
6030;BME280;3043;42.682;23.376;2023-04-19T12:40:51;94379.31;;;15.67;100.00
6030;BME280;3043;42.682;23.376;2023-04-19T12:43:17;94369.06;;;15.79;100.00
6030;BME280;3043;42.682;23.376;2023-04-19T12:45:42;94381.03;;;15.99;100.00
6030;BME280;3043;42.682;23.376;2023-04-19T12:48:07;94380.84;;;15.86;100.00
6030;BME280;3043;42.682;23.376;2023-04-19T12:50:33;94370.59;;;15.83;100.00
6030;BME280;3043;42.682;23.376;2023-04-19T12:52:58;94369.25;;;15.76;100.00
6030;BME280;3043;42.682;23.376;2023-04-19T12:55:24;94382.50;;;15.56;100.00
6030;BME280;3043;42.682;23.376;2023-04-19T12:57:49;94375.78;;;15.52;100.00
6030;BME280;3043;42.682;23.376;2023-04-19T13:00:15;94374.56;;;15.42;100.00
6030;BME280;3043;42.682;23.376;2023-04-19T13:02:41;94383.03;;;15.13;100.00
6030;BME280;3043;42.682;23.376;2023-04-19T13:05:07;94391.47;;;15.18;100.00
6030;BME280;3043;42.682;23.376;2023-04-19T13:07:32;94386.50;;;14.97;100.00
6030;BME280;3043;42.682;23.376;2023-04-19T13:09:58;94395.00;;;14.66;100.00
6030;BME280;3043;42.682;23.376;2023-04-19T13:12:24;94401.31;;;14.79;100.00
6030;BME280;3043;42.682;23.376;2023-04-19T13:14:49;94398.38;;;14.51;100.00
6030;BME280;3043;42.682;23.376;2023-04-19T13:17:19;94407.28;;;14.10;100.00
6030;BME280;3043;42.682;23.376;2023-04-19T13:19:44;94401.28;;;13.91;100.00
6030;BME280;3043;42.682;23.376;2023-04-19T13:22:09;94403.78;;;14.11;100.00